Terminal Aerodrome Forecast
Issued by NWS La Crosse, WI

Home | Current Version | Previous Version | Text Only | Print | Product List | Glossary On
Versions: 1 2 3 4 5 6 7 8 9 10 11 12 13 14 15 16
000
FTUS43 KARX 311730
TAFRST
TAF
KRST 311730Z 3118/0118 36014G22KT P6SM SKC
     FM312200 36008KT P6SM SKC
     FM011100 15006KT P6SM SKC
     FM011600 17011KT P6SM SKC=

USA.gov is the U.S. government's official web portal to all federal, state and local government web resources and services.